Time;durP1;ratioP1;P1;durP2;ratioP2;P2;SDS_P1;SDS_P2;PMS_P1;PMS_P2;Temp;Humidity;BMP_temperature;BMP_pressure;BME280_temperature;BME280_humidity;BME280_pressure;Samples;Min_cycle;Max_cycle;Signal;HPM_P1;HPM_P2
2022/01/15 00:02:11;;;;;;;;;98.00;73.75;;;;;5.51;69.78;102775.78;5100484;27;45620;-73
2022/01/15 00:04:37;;;;;;;;;100.00;75.50;;;;;5.52;69.49;102779.31;5099517;27;51026;-73
2022/01/15 00:07:02;;;;;;;;;104.00;80.25;;;;;5.47;69.37;102768.53;5112042;27;57807;-73
2022/01/15 00:09:28;;;;;;;;;102.75;73.25;;;;;5.50;69.42;102776.63;5104172;27;45524;-72
2022/01/15 00:11:53;;;;;;;;;104.75;83.50;;;;;5.51;69.58;102774.91;5099270;27;51052;-73
2022/01/15 00:14:29;;;;;;;;;101.75;78.50;;;;;5.48;69.82;102775.59;5111893;27;45617;-73
2022/01/15 00:17:06;;;;;;;;;96.75;73.00;;;;;5.42;69.76;102750.72;5099339;27;45595;-73
2022/01/15 00:19:42;;;;;;;;;102.25;82.25;;;;;5.48;69.56;102766.81;5083117;27;45434;-73
2022/01/15 00:22:09;;;;;;;;;119.25;85.50;;;;;5.48;69.75;102764.22;5099223;27;45367;-73
2022/01/15 00:24:34;;;;;;;;;121.00;97.50;;;;;5.45;69.75;102758.78;5099336;27;46604;-73
2022/01/15 00:27:00;;;;;;;;;133.00;109.00;;;;;5.51;70.26;102773.19;5099391;27;45188;-73
2022/01/15 00:29:25;;;;;;;;;114.75;90.50;;;;;5.55;69.92;102768.13;5109978;27;54814;-73
2022/01/15 00:31:50;;;;;;;;;104.75;73.50;;;;;5.55;69.58;102771.66;5099425;27;45399;-73
2022/01/15 00:34:16;;;;;;;;;119.50;99.00;;;;;5.52;69.82;102758.34;5105210;27;61518;-73
2022/01/15 00:36:41;;;;;;;;;124.50;105.75;;;;;5.49;69.55;102753.84;5118943;27;60373;-72
2022/01/15 00:39:06;;;;;;;;;134.75;106.25;;;;;5.50;69.71;102757.38;5119173;27;56938;-73
2022/01/15 00:41:32;;;;;;;;;132.00;112.25;;;;;5.47;69.56;102750.22;5119244;27;53912;-73
2022/01/15 00:43:57;;;;;;;;;127.25;106.50;;;;;5.47;69.79;102749.31;5119396;27;46199;-73
2022/01/15 00:46:23;;;;;;;;;116.50;87.00;;;;;5.46;70.07;102748.41;5119719;27;45267;-73
2022/01/15 00:48:48;;;;;;;;;129.50;105.50;;;;;5.51;70.09;102746.06;5119584;27;45318;-73
2022/01/15 00:51:13;;;;;;;;;129.25;104.00;;;;;5.55;70.11;102742.84;5118221;27;51761;-72
2022/01/15 00:53:39;;;;;;;;;111.50;94.50;;;;;5.54;69.88;102738.41;5118724;27;62263;-73
2022/01/15 00:56:04;;;;;;;;;124.25;94.50;;;;;5.55;69.55;102748.09;5119844;27;45909;-74
2022/01/15 00:58:30;;;;;;;;;118.00;98.25;;;;;5.53;69.57;102745.34;5119910;27;45243;-73
2022/01/15 01:00:55;;;;;;;;;119.00;92.50;;;;;5.47;69.50;102730.97;5118994;27;49457;-72
2022/01/15 01:03:20;;;;;;;;;114.25;93.25;;;;;5.48;69.46;102738.00;5115614;27;61347;-74
2022/01/15 01:05:46;;;;;;;;;122.25;101.00;;;;;5.42;69.77;102730.69;5102520;27;52255;-73
2022/01/15 01:08:11;;;;;;;;;127.50;93.50;;;;;5.45;69.95;102732.59;5098968;27;45564;-73
2022/01/15 01:10:51;;;;;;;;;130.25;101.75;;;;;5.41;69.80;102722.72;5098346;27;55059;-73
2022/01/15 01:13:39;;;;;;;;;124.75;98.50;;;;;5.40;69.51;102721.81;5098553;27;45864;-74
2022/01/15 01:23:55;;;;;;;;;105.25;88.50;;;;;5.32;69.42;102711.66;5118560;27;45859;-73
2022/01/15 01:28:58;;;;;;;;;117.75;99.00;;;;;5.30;69.45;102710.69;5107014;27;45294;-73
2022/01/15 01:31:32;;;;;;;;;113.00;100.50;;;;;5.29;69.39;102698.41;5104671;27;45442;-73
2022/01/15 01:34:06;;;;;;;;;121.50;98.75;;;;;5.27;69.33;102698.28;5104121;27;45633;-72
2022/01/15 01:39:08;;;;;;;;;131.50;104.00;;;;;5.20;69.44;102703.97;5098448;27;45484;-73
2022/01/15 01:41:37;;;;;;;;;120.75;95.00;;;;;5.23;69.43;102706.78;5098121;27;45292;-73
2022/01/15 01:44:03;;;;;;;;;122.75;95.00;;;;;5.16;69.36;102696.72;5097580;27;46559;-73
2022/01/15 01:48:55;;;;;;;;;111.00;91.75;;;;;5.18;69.61;102706.50;5115725;27;45255;-73
2022/01/15 01:51:33;;;;;;;;;122.75;94.25;;;;;5.19;69.64;102705.69;5083111;27;45614;-73
2022/01/15 01:53:59;;;;;;;;;114.00;92.50;;;;;5.21;69.62;102709.28;5110157;27;47137;-73
2022/01/15 01:56:25;;;;;;;;;108.00;83.50;;;;;5.21;69.60;102696.19;5100202;27;45500;-72
2022/01/15 01:58:50;;;;;;;;;104.75;81.25;;;;;5.23;69.82;102696.31;5118590;27;45398;-73
2022/01/15 02:01:16;;;;;;;;;108.00;82.50;;;;;5.24;69.43;102690.25;5117607;27;57477;-73
2022/01/15 02:03:41;;;;;;;;;102.00;79.25;;;;;5.22;69.89;102677.06;5110060;27;61711;-73
2022/01/15 02:06:06;;;;;;;;;110.25;83.25;;;;;5.23;69.72;102677.97;5097102;27;60245;-73
2022/01/15 02:08:34;;;;;;;;;100.50;76.75;;;;;5.22;69.80;102673.56;5086341;27;55180;-72
2022/01/15 02:11:02;;;;;;;;;104.00;78.50;;;;;5.24;69.78;102680.69;5084012;27;45403;-74
2022/01/15 02:13:27;;;;;;;;;104.00;77.50;;;;;5.23;69.57;102681.50;5097613;27;45636;-73
2022/01/15 02:15:58;;;;;;;;;103.25;71.50;;;;;5.23;69.63;102680.59;5097089;27;58930;-73
2022/01/15 02:18:24;;;;;;;;;102.75;77.75;;;;;5.18;69.66;102668.94;5084657;27;45465;-73
2022/01/15 02:23:31;;;;;;;;;102.25;77.00;;;;;5.21;69.65;102671.72;5118529;27;45245;-74
2022/01/15 02:23:45;;;;;;;;;103.75;78.25;;;;;5.18;69.33;102675.06;5117667;27;46107;-73
2022/01/15 02:26:14;;;;;;;;;104.50;77.50;;;;;5.17;69.48;102672.38;5118457;27;45200;-73
2022/01/15 02:28:41;;;;;;;;;112.25;83.00;;;;;5.17;69.29;102682.84;5099320;27;45345;-73
2022/01/15 02:31:14;;;;;;;;;115.75;83.75;;;;;5.13;69.45;102668.63;5118028;27;45444;-73
2022/01/15 02:33:40;;;;;;;;;104.25;80.75;;;;;5.09;69.32;102655.25;5117699;27;45391;-73
2022/01/15 02:36:12;;;;;;;;;113.00;84.50;;;;;5.11;69.34;102677.19;5115132;27;45337;-73
2022/01/15 02:38:38;;;;;;;;;107.00;81.75;;;;;5.08;69.45;102656.06;5118048;27;45420;-73
2022/01/15 02:41:04;;;;;;;;;97.75;74.50;;;;;5.08;69.33;102661.31;5117928;27;45254;-72
2022/01/15 02:43:32;;;;;;;;;104.50;77.00;;;;;5.06;69.17;102661.22;5112669;27;47825;-73
2022/01/15 02:46:08;;;;;;;;;106.00;83.25;;;;;5.04;69.39;102654.97;5117036;27;45364;-72
2022/01/15 02:48:33;;;;;;;;;101.75;80.00;;;;;5.03;69.23;102661.00;5117962;27;45489;-73
2022/01/15 02:50:59;;;;;;;;;102.50;82.50;;;;;5.01;69.18;102652.16;5099226;27;45231;-73
2022/01/15 02:53:24;;;;;;;;;104.50;81.00;;;;;4.97;69.13;102647.53;5117054;27;64717;-73
2022/01/15 02:55:51;;;;;;;;;108.75;84.75;;;;;4.98;69.09;102644.13;5117590;27;45305;-73
2022/01/15 02:58:18;;;;;;;;;105.00;83.50;;;;;4.94;69.22;102637.78;5117828;27;45239;-73
2022/01/15 03:00:43;;;;;;;;;107.75;81.25;;;;;4.94;69.26;102632.53;5102930;27;45337;-73
2022/01/15 03:03:09;;;;;;;;;102.75;77.25;;;;;4.94;69.06;102639.47;5102227;27;45370;-73
2022/01/15 03:05:34;;;;;;;;;98.75;73.50;;;;;4.90;69.29;102632.25;5096430;27;60520;-73
2022/01/15 03:08:00;;;;;;;;;98.75;76.00;;;;;4.91;69.16;102637.59;5096494;27;57739;-72
2022/01/15 03:10:25;;;;;;;;;97.75;71.75;;;;;4.87;69.13;102629.44;5097235;27;45310;-73
2022/01/15 03:12:53;;;;;;;;;104.00;76.50;;;;;4.89;69.13;102628.72;5096986;27;46355;-73
2022/01/15 03:15:19;;;;;;;;;104.25;80.25;;;;;4.88;69.46;102636.50;5113474;27;45613;-73
2022/01/15 03:17:45;;;;;;;;;106.50;73.50;;;;;4.88;68.90;102644.34;5119883;27;45213;-73
2022/01/15 03:20:14;;;;;;;;;103.75;77.00;;;;;4.86;69.33;102638.13;5121101;27;45279;-72
2022/01/15 03:22:39;;;;;;;;;101.50;78.50;;;;;4.86;69.13;102636.41;5120642;27;46443;-73
2022/01/15 03:25:05;;;;;;;;;104.50;79.00;;;;;4.81;69.23;102629.06;5120734;27;45364;-73
2022/01/15 03:27:31;;;;;;;;;104.75;80.75;;;;;4.85;69.35;102631.97;5117691;27;45251;-72
2022/01/15 03:29:56;;;;;;;;;108.00;81.50;;;;;4.79;68.88;102614.97;5099804;27;53361;-73
2022/01/15 03:32:21;;;;;;;;;104.75;81.25;;;;;4.83;68.93;102624.81;5099454;27;61822;-73
2022/01/15 03:34:47;;;;;;;;;106.75;78.25;;;;;4.82;69.00;102618.69;5104670;27;45394;-73
2022/01/15 03:37:12;;;;;;;;;102.50;74.25;;;;;4.81;69.26;102622.13;5099621;27;55101;-72
2022/01/15 03:39:38;;;;;;;;;105.25;77.25;;;;;4.76;68.95;102609.56;5100312;27;45347;-73
2022/01/15 03:42:04;;;;;;;;;112.50;82.25;;;;;4.77;69.13;102608.75;5100036;27;46265;-73
2022/01/15 03:44:29;;;;;;;;;106.25;86.50;;;;;4.78;69.15;102608.84;5118998;27;45531;-73
2022/01/15 03:46:55;;;;;;;;;106.75;82.25;;;;;4.72;69.34;102596.25;5120273;27;54744;-72
2022/01/15 03:49:20;;;;;;;;;105.25;85.50;;;;;4.75;69.31;102598.19;5119597;27;53871;-73
2022/01/15 03:51:45;;;;;;;;;103.75;82.50;;;;;4.73;68.97;102592.84;5119801;27;57276;-74
2022/01/15 03:54:11;;;;;;;;;110.00;84.50;;;;;4.73;69.25;102592.84;5119759;27;60677;-74
2022/01/15 03:56:36;;;;;;;;;113.50;88.25;;;;;4.72;69.43;102584.91;5120516;27;56448;-73
2022/01/15 03:59:01;;;;;;;;;114.75;86.75;;;;;4.72;69.12;102587.50;5119614;27;53985;-73
2022/01/15 04:01:27;;;;;;;;;104.00;84.00;;;;;4.72;69.08;102579.66;5112289;27;54723;-73
2022/01/15 04:03:52;;;;;;;;;105.75;84.75;;;;;4.70;69.22;102574.34;5104668;27;59233;-73
2022/01/15 04:06:18;;;;;;;;;102.75;76.50;;;;;4.70;69.40;102576.06;5099084;27;57494;-73
2022/01/15 04:08:43;;;;;;;;;111.50;83.75;;;;;4.69;69.01;102576.88;5098888;27;56771;-73
2022/01/15 04:11:08;;;;;;;;;111.50;83.25;;;;;4.68;68.99;102573.31;5098981;27;61385;-73
2022/01/15 04:13:34;;;;;;;;;106.50;84.00;;;;;4.66;69.00;102564.50;5109482;27;52615;-73
2022/01/15 04:16:00;;;;;;;;;107.25;86.75;;;;;4.66;69.18;102576.66;5099816;27;53716;-74
2022/01/15 04:18:28;;;;;;;;;105.25;79.00;;;;;4.65;69.05;102575.78;5104962;27;45484;-73
2022/01/15 04:20:53;;;;;;;;;108.50;79.25;;;;;4.65;68.91;102561.78;5106087;27;47430;-73
2022/01/15 04:23:19;;;;;;;;;104.25;83.00;;;;;4.64;69.42;102553.03;5119075;27;53645;-73
2022/01/15 04:25:44;;;;;;;;;105.00;76.75;;;;;4.64;69.16;102567.84;5081079;27;45317;-73
2022/01/15 04:28:11;;;;;;;;;107.50;85.00;;;;;4.62;68.77;102559.88;5105812;27;45337;-74
2022/01/15 04:30:37;;;;;;;;;102.50;78.75;;;;;4.62;69.22;102557.25;5119760;27;46580;-73
2022/01/15 04:33:03;;;;;;;;;103.75;81.00;;;;;4.62;69.13;102551.13;5120054;27;45278;-73
2022/01/15 04:35:28;;;;;;;;;94.00;65.50;;;;;4.61;69.26;102550.22;5119457;27;56347;-73
2022/01/15 04:38:01;;;;;;;;;104.00;76.25;;;;;4.62;69.32;102548.50;5119499;27;54430;-73
2022/01/15 04:40:26;;;;;;;;;102.00;75.50;;;;;4.61;69.11;102544.09;5119893;27;46254;-73
2022/01/15 04:42:52;;;;;;;;;103.75;80.25;;;;;4.60;69.17;102550.13;5116708;27;62275;-73
2022/01/15 04:45:17;;;;;;;;;102.75;74.25;;;;;4.60;69.15;102550.13;5100219;27;54821;-74
2022/01/15 04:47:43;;;;;;;;;102.50;73.00;;;;;4.58;69.02;102539.56;5103538;27;56854;-73
2022/01/15 04:50:13;;;;;;;;;99.75;78.75;;;;;4.58;69.34;102550.03;5105128;27;61282;-73
2022/01/15 04:52:38;;;;;;;;;105.25;78.00;;;;;4.54;69.39;102541.91;5104659;27;45169;-73
2022/01/15 04:55:05;;;;;;;;;102.50;79.75;;;;;4.58;68.95;102549.09;5099163;27;45311;-73
2022/01/15 04:57:30;;;;;;;;;105.50;81.50;;;;;4.54;69.15;102540.19;5102246;27;45216;-73
2022/01/15 04:59:56;;;;;;;;;106.75;81.75;;;;;4.55;69.11;102549.84;5098718;27;45630;-73
2022/01/15 05:02:21;;;;;;;;;105.00;78.75;;;;;4.56;69.21;102550.75;5104007;27;45207;-74
2022/01/15 05:04:46;;;;;;;;;105.00;74.00;;;;;4.55;69.02;102548.94;5099015;27;45268;-73
2022/01/15 05:07:12;;;;;;;;;103.25;75.75;;;;;4.53;69.24;102543.63;5098728;27;45490;-73
2022/01/15 05:09:38;;;;;;;;;103.50;78.25;;;;;4.53;69.04;102538.38;5098472;27;49203;-72
2022/01/15 05:12:27;;;;;;;;;103.75;77.25;;;;;4.52;69.42;102549.63;5100022;27;45353;-73
2022/01/15 05:14:49;;;;;;;;;103.25;80.25;;;;;4.52;69.10;102546.13;5098336;27;45393;-73
2022/01/15 05:17:14;;;;;;;;;104.00;72.75;;;;;4.51;69.00;102554.78;5080428;27;45618;-74
2022/01/15 05:19:39;;;;;;;;;100.50;71.75;;;;;4.50;69.28;102532.94;5098152;27;62467;-73
2022/01/15 05:22:05;;;;;;;;;102.75;74.25;;;;;4.50;69.27;102532.03;5097655;27;60002;-73
2022/01/15 05:24:31;;;;;;;;;97.75;71.75;;;;;4.48;69.27;102534.56;5107476;27;53411;-73
2022/01/15 05:26:57;;;;;;;;;103.00;74.50;;;;;4.47;69.53;102541.53;5101067;27;45271;-73
2022/01/15 05:29:22;;;;;;;;;95.25;73.00;;;;;4.50;69.42;102545.13;5097665;27;62987;-72
2022/01/15 05:31:48;;;;;;;;;103.00;76.75;;;;;4.48;69.49;102542.41;5098333;27;45343;-73
2022/01/15 05:34:13;;;;;;;;;116.25;82.25;;;;;4.53;69.91;102551.47;5098365;27;45276;-74
2022/01/15 05:36:39;;;;;;;;;106.25;81.00;;;;;4.55;69.95;102543.69;5097689;27;54436;-73
2022/01/15 05:39:05;;;;;;;;;99.25;72.25;;;;;4.60;69.92;102542.28;5105808;27;45680;-73
2022/01/15 05:41:31;;;;;;;;;105.00;79.50;;;;;4.61;69.77;102544.09;5100535;27;45507;-73
2022/01/15 05:44:00;;;;;;;;;95.25;73.25;;;;;4.62;69.89;102551.13;5098278;27;45591;-73
2022/01/15 05:46:26;;;;;;;;;95.25;72.00;;;;;4.56;69.89;102538.56;5107067;27;45252;-72
2022/01/15 05:48:52;;;;;;;;;98.50;72.00;;;;;4.61;69.85;102555.44;5102377;27;45430;-73
2022/01/15 05:51:17;;;;;;;;;99.25;72.00;;;;;4.62;69.62;102556.34;5113201;27;45533;-72
2022/01/15 05:53:42;;;;;;;;;97.00;73.50;;;;;4.61;69.65;102544.97;5107485;27;54963;-73
2022/01/15 05:56:08;;;;;;;;;98.75;72.00;;;;;4.61;69.71;102555.44;5097373;27;56654;-73
2022/01/15 05:58:33;;;;;;;;;93.00;70.50;;;;;4.62;69.70;102552.00;5097985;27;45525;-73
2022/01/15 06:00:59;;;;;;;;;94.50;69.75;;;;;4.62;69.40;102553.72;5105117;27;60439;-72
2022/01/15 06:03:24;;;;;;;;;90.75;68.25;;;;;4.63;69.31;102563.38;5102987;27;55032;-73
2022/01/15 06:05:50;;;;;;;;;98.25;72.75;;;;;4.63;69.86;102561.66;5097866;27;45627;-74
2022/01/15 06:08:15;;;;;;;;;94.25;70.25;;;;;4.63;69.70;102551.19;5098055;27;46793;-72
2022/01/15 06:10:41;;;;;;;;;97.25;70.25;;;;;4.63;69.20;102555.53;5117580;27;60049;-72
2022/01/15 06:13:06;;;;;;;;;97.75;71.00;;;;;4.60;69.39;102558.88;5118588;27;45193;-73
2022/01/15 06:15:32;;;;;;;;;93.50;71.75;;;;;4.57;69.26;102545.59;5100867;27;45491;-73
2022/01/15 06:17:57;;;;;;;;;101.00;71.50;;;;;4.56;69.33;102554.25;5104361;27;45521;-72
2022/01/15 06:20:23;;;;;;;;;98.25;72.75;;;;;4.54;69.31;102555.88;5101357;27;45315;-72
2022/01/15 06:22:48;;;;;;;;;102.50;72.75;;;;;4.54;69.34;102542.81;5097578;27;45402;-73
2022/01/15 06:25:13;;;;;;;;;95.00;70.50;;;;;4.51;69.13;102542.59;5097205;27;55220;-73
2022/01/15 06:27:39;;;;;;;;;97.25;72.25;;;;;4.50;69.06;102539.91;5096857;27;62140;-73
2022/01/15 06:30:05;;;;;;;;;99.75;70.50;;;;;4.47;68.96;102543.19;5097242;27;45287;-73
2022/01/15 06:32:35;;;;;;;;;93.25;68.25;;;;;4.45;68.78;102540.50;5102248;27;45403;-73
2022/01/15 06:35:02;;;;;;;;;91.75;70.75;;;;;4.42;68.85;102534.16;5100234;27;45227;-73
2022/01/15 06:37:27;;;;;;;;;97.50;70.75;;;;;4.42;69.08;102536.78;5097253;27;45255;-73
2022/01/15 06:39:52;;;;;;;;;97.00;72.00;;;;;4.39;68.66;102531.38;5106632;27;57472;-73
2022/01/15 06:42:18;;;;;;;;;94.25;70.25;;;;;4.39;68.93;102528.75;5096747;27;58236;-73
2022/01/15 06:44:43;;;;;;;;;91.25;70.25;;;;;4.36;68.99;102536.41;5098384;27;45479;-74
2022/01/15 06:47:09;;;;;;;;;95.50;67.25;;;;;4.34;68.85;102538.03;5106737;27;59029;-73
2022/01/15 06:49:34;;;;;;;;;97.00;71.50;;;;;4.32;69.01;102529.19;5099710;27;45409;-73
2022/01/15 06:52:00;;;;;;;;;94.75;70.50;;;;;4.31;69.14;102523.03;5120917;27;49379;-72
2022/01/15 06:54:25;;;;;;;;;98.75;71.50;;;;;4.30;68.84;102526.44;5121863;27;45575;-74
2022/01/15 06:56:50;;;;;;;;;94.75;70.75;;;;;4.29;68.80;102518.53;5121317;27;46056;-74
2022/01/15 06:59:16;;;;;;;;;90.75;68.25;;;;;4.28;69.12;102520.22;5118656;27;59718;-74
2022/01/15 07:01:41;;;;;;;;;99.00;72.25;;;;;4.27;69.05;102526.28;5100661;27;56992;-74
2022/01/15 07:04:06;;;;;;;;;102.50;78.25;;;;;4.26;69.06;102518.31;5105687;27;50690;-73
2022/01/15 07:06:32;;;;;;;;;96.25;71.00;;;;;4.25;68.86;102521.72;5100689;27;45531;-72
2022/01/15 07:08:57;;;;;;;;;91.50;67.50;;;;;4.24;69.26;102514.72;5085964;27;49305;-74
2022/01/15 07:11:23;;;;;;;;;98.50;72.00;;;;;4.22;68.55;102509.38;5100939;27;46014;-74
2022/01/15 07:13:48;;;;;;;;;92.50;70.00;;;;;4.22;68.72;102511.09;5109000;27;45291;-74
2022/01/15 07:16:13;;;;;;;;;104.00;73.25;;;;;4.20;68.54;102503.13;5100017;27;61559;-74
2022/01/15 07:18:39;;;;;;;;;104.00;73.75;;;;;4.19;68.95;102502.25;5099295;27;57182;-74
2022/01/15 07:21:04;;;;;;;;;105.75;72.00;;;;;4.19;68.76;102511.78;5111245;27;56149;-76
2022/01/15 07:23:29;;;;;;;;;97.00;69.25;;;;;4.17;68.79;102506.47;5100568;27;45323;-75
2022/01/15 07:25:55;;;;;;;;;99.75;71.75;;;;;4.16;68.65;102509.00;5102238;27;58928;-74
2022/01/15 07:28:20;;;;;;;;;90.25;71.00;;;;;4.16;68.76;102509.91;5117360;27;58688;-75
2022/01/15 07:30:46;;;;;;;;;96.00;73.00;;;;;4.18;68.65;102512.59;5121049;27;45317;-75
2022/01/15 07:33:12;;;;;;;;;6.50;0.00;;;;;4.17;69.20;102506.47;5104285;27;51440;-77
2022/01/15 07:35:37;;;;;;;;;95.50;71.00;;;;;4.17;69.13;102503.88;5105761;27;45486;-74
2022/01/15 07:38:03;;;;;;;;;94.50;70.75;;;;;4.17;68.95;102496.03;5094682;27;45706;-76
2022/01/15 07:40:28;;;;;;;;;96.75;72.25;;;;;4.16;68.93;102502.06;5103502;27;54947;-76
2022/01/15 07:42:54;;;;;;;;;101.00;72.50;;;;;4.18;68.82;102497.81;5105896;27;45408;-74
2022/01/15 07:45:19;;;;;;;;;102.50;72.50;;;;;4.17;69.11;102503.88;5116505;27;60133;-74
2022/01/15 07:47:45;;;;;;;;;97.25;71.50;;;;;4.18;68.56;102499.53;5119314;27;45476;-75
2022/01/15 07:50:15;;;;;;;;;95.50;70.25;;;;;4.18;69.24;102499.53;5118986;27;46041;-75
2022/01/15 07:52:40;;;;;;;;;94.75;71.25;;;;;4.17;68.58;102503.88;5114833;27;45434;-75
2022/01/15 07:55:06;;;;;;;;;101.50;71.25;;;;;4.14;68.78;102501.03;5114880;27;65422;-74
2022/01/15 07:57:32;;;;;;;;;97.25;71.75;;;;;4.18;68.95;102503.06;5119003;27;45191;-74
2022/01/15 07:59:57;;;;;;;;;89.50;66.75;;;;;4.19;69.12;102498.72;5098839;27;45348;-76
2022/01/15 08:02:22;;;;;;;;;93.50;70.75;;;;;4.19;69.04;102499.63;5117364;27;53848;-75
2022/01/15 08:04:48;;;;;;;;;97.50;73.00;;;;;4.21;68.93;102491.91;5098558;27;45706;-75
2022/01/15 08:07:14;;;;;;;;;103.75;73.00;;;;;4.23;69.29;102498.13;5115969;27;45399;-77
2022/01/15 08:09:39;;;;;;;;;96.75;72.25;;;;;4.24;69.02;102489.47;5097747;27;45458;-73
2022/01/15 08:12:05;;;;;;;;;103.25;76.25;;;;;4.27;69.42;102489.66;5097820;27;52850;-75
2022/01/15 08:14:30;;;;;;;;;92.50;70.75;;;;;4.29;69.36;102487.13;5101122;27;45379;-74
2022/01/15 08:16:56;;;;;;;;;92.25;70.50;;;;;4.28;69.12;102493.19;5097637;27;45387;-74
2022/01/15 08:19:21;;;;;;;;;99.75;75.25;;;;;4.25;69.20;102478.19;5098437;27;45484;-75
2022/01/15 08:21:47;;;;;;;;;102.00;72.75;;;;;4.34;69.64;102496.19;5102575;27;45536;-74
2022/01/15 08:24:12;;;;;;;;;99.50;76.50;;;;;4.36;69.37;102481.47;5097872;27;46063;-76
2022/01/15 08:26:37;;;;;;;;;100.00;71.75;;;;;4.38;69.70;102493.84;5098877;27;46867;-77
2022/01/15 08:29:03;;;;;;;;;101.50;77.50;;;;;4.38;69.42;102477.28;5113746;27;54307;-78
2022/01/15 08:31:28;;;;;;;;;104.25;79.50;;;;;4.43;69.33;102487.22;5119262;27;45462;-76
2022/01/15 08:33:54;;;;;;;;;104.25;75.50;;;;;4.46;69.58;102478.63;5115499;27;45633;-76
2022/01/15 08:36:20;;;;;;;;;103.50;80.50;;;;;4.51;69.80;102492.91;5098622;27;45489;-76
2022/01/15 08:38:46;;;;;;;;;110.00;79.50;;;;;4.45;69.68;102469.88;5119190;27;45406;-76
2022/01/15 08:41:13;;;;;;;;;106.50;74.50;;;;;4.53;69.37;102486.06;5115268;27;45293;-75
2022/01/15 08:43:39;;;;;;;;;94.75;77.75;;;;;4.55;69.36;102486.16;5112883;27;45700;-75
2022/01/15 08:46:04;;;;;;;;;105.00;80.50;;;;;4.61;69.39;102490.03;5100500;27;45929;-75
2022/01/15 08:48:29;;;;;;;;;104.50;76.50;;;;;4.65;69.49;102496.38;5104596;27;45362;-75
2022/01/15 08:50:55;;;;;;;;;103.50;79.25;;;;;4.62;69.13;102494.47;5111568;27;53244;-76
2022/01/15 08:53:21;;;;;;;;;102.50;78.75;;;;;4.70;69.58;102508.03;5116133;27;62357;-76
2022/01/15 08:55:47;;;;;;;;;101.50;75.75;;;;;4.73;69.73;102503.88;5111408;27;45782;-75
2022/01/15 08:58:12;;;;;;;;;101.75;72.75;;;;;4.75;69.72;102510.94;5114070;27;45490;-74
2022/01/15 09:00:38;;;;;;;;;100.25;74.00;;;;;4.76;69.52;102512.75;5115201;27;45362;-74
2022/01/15 09:03:04;;;;;;;;;104.75;80.00;;;;;4.72;69.21;102495.94;5094184;27;57132;-75
2022/01/15 09:05:32;;;;;;;;;104.25;76.75;;;;;4.80;69.72;102501.66;5102333;27;45479;-75
2022/01/15 09:07:57;;;;;;;;;108.75;85.75;;;;;4.82;69.49;102505.25;5118535;27;45472;-76
2022/01/15 09:10:22;;;;;;;;;106.75;78.00;;;;;4.85;69.57;102508.06;5117526;27;55117;-75
2022/01/15 09:12:48;;;;;;;;;100.75;78.25;;;;;4.83;69.33;102496.59;5099230;27;46673;-75
2022/01/15 09:15:14;;;;;;;;;102.25;80.00;;;;;4.90;69.56;102504.00;5098860;27;45477;-75
2022/01/15 09:17:40;;;;;;;;;107.00;80.25;;;;;4.93;69.46;102501.56;5107416;27;45551;-75
2022/01/15 09:20:05;;;;;;;;;107.00;84.75;;;;;4.92;69.48;102500.69;5096341;27;45494;-75
2022/01/15 09:22:31;;;;;;;;;104.75;76.00;;;;;4.98;69.28;102506.28;5197276;22;47429;-74
2022/01/15 09:24:56;;;;;;;;;107.50;81.75;;;;;5.02;69.37;102503.84;5063686;28;60103;-74
2022/01/15 09:30:12;;;;;;;;;105.00;80.25;;;;;5.05;69.42;102512.78;5063995;27;45406;-75
2022/01/15 09:32:44;;;;;;;;;89.25;70.25;;;;;4.94;69.56;102500.75;5063650;27;45857;-81
2022/01/15 09:35:10;;;;;;;;;97.00;71.50;;;;;4.81;70.01;102512.22;5033165;28;45344;-83
2022/01/15 09:37:36;;;;;;;;;106.00;76.00;;;;;4.61;70.53;102505.75;5075807;27;45587;-83
2022/01/15 09:40:02;;;;;;;;;113.25;85.75;;;;;4.37;71.38;102496.38;5072160;27;45533;-80
2022/01/15 09:42:28;;;;;;;;;104.75;72.75;;;;;4.32;72.03;102508.25;5073114;27;46151;-81
2022/01/15 09:44:53;;;;;;;;;103.00;77.00;;;;;4.19;72.13;102493.50;5075475;27;45476;-84
2022/01/15 09:47:21;;;;;;;;;108.50;81.75;;;;;4.11;72.84;102503.47;5065310;27;45849;-82
2022/01/15 09:49:46;;;;;;;;;108.00;81.50;;;;;4.06;72.93;102497.06;5056333;27;45913;-83
2022/01/15 09:52:12;;;;;;;;;106.00;82.25;;;;;4.09;72.57;102506.78;5041372;28;57999;-79
2022/01/15 09:54:38;;;;;;;;;121.25;90.75;;;;;4.17;72.51;102492.50;5063064;27;45525;-79
2022/01/15 09:57:04;;;;;;;;;115.00;91.00;;;;;4.25;72.27;102491.25;5067648;27;45513;-79
2022/01/15 09:59:30;;;;;;;;;116.50;87.50;;;;;4.39;72.11;102490.44;5065116;27;45601;-79
2022/01/15 10:01:57;;;;;;;;;108.00;84.25;;;;;4.50;72.33;102484.97;5062611;27;56881;-78
2022/01/15 10:04:23;;;;;;;;;109.50;86.00;;;;;4.54;72.31;102487.88;5067244;27;45715;-79
2022/01/15 10:07:07;;;;;;;;;117.00;88.75;;;;;4.54;72.42;102489.59;5070018;27;45476;-77
2022/01/15 10:09:33;;;;;;;;;113.75;83.50;;;;;4.55;72.53;102483.53;5070045;27;45578;-75
2022/01/15 10:11:58;;;;;;;;;122.00;96.25;;;;;4.59;72.89;102494.28;5060094;27;46483;-77
2022/01/15 10:14:27;;;;;;;;;99.00;69.00;;;;;4.56;72.78;102488.84;5064424;27;45505;-77
2022/01/15 10:16:55;;;;;;;;;119.75;96.50;;;;;4.67;72.66;102495.66;5064620;28;45650;-77
2022/01/15 10:19:27;;;;;;;;;124.75;103.75;;;;;4.76;72.51;102495.31;5062485;28;45473;-77
2022/01/15 10:22:11;;;;;;;;;122.50;102.00;;;;;4.85;72.76;102501.13;5064075;27;47279;-77
2022/01/15 10:24:41;;;;;;;;;130.50;101.25;;;;;4.95;72.34;102500.88;5065485;28;46065;-79
2022/01/15 10:27:22;;;;;;;;;120.50;104.25;;;;;5.03;72.79;102496.09;5066833;27;45761;-75
2022/01/15 10:29:58;;;;;;;;;111.25;94.75;;;;;5.11;72.61;102497.44;5064427;27;45699;-71
2022/01/15 10:32:25;;;;;;;;;115.50;91.50;;;;;5.12;72.55;102480.94;5064963;27;45468;-75
2022/01/15 10:34:50;;;;;;;;;130.25;103.50;;;;;5.14;72.76;102486.25;5059433;27;45993;-74
2022/01/15 10:41:09;;;;;;;;;114.50;95.75;;;;;5.20;73.36;102471.81;5075861;27;45492;-77
2022/01/15 10:43:35;;;;;;;;;117.00;99.00;;;;;5.20;73.48;102477.03;5068562;27;45760;-76
2022/01/15 10:46:03;;;;;;;;;129.00;104.75;;;;;5.15;72.99;102454.03;5063731;27;61210;-76
2022/01/15 10:48:37;;;;;;;;;118.75;99.00;;;;;5.19;73.59;102456.91;5064859;28;45419;-75
2022/01/15 10:51:05;;;;;;;;;135.50;114.50;;;;;5.24;72.67;102457.19;5068065;27;45500;-75
2022/01/15 10:53:44;;;;;;;;;138.50;108.50;;;;;5.40;72.93;102461.59;5064754;28;47022;-73
2022/01/15 10:56:11;;;;;;;;;140.25;114.00;;;;;5.51;72.61;102457.88;5057439;27;45563;-74
2022/01/15 10:58:36;;;;;;;;;138.00;112.75;;;;;5.61;72.48;102449.75;5067400;27;45512;-74
2022/01/15 11:01:02;;;;;;;;;129.25;109.50;;;;;5.72;72.65;102455.59;5065228;28;45455;-74
2022/01/15 11:03:38;;;;;;;;;130.25;105.25;;;;;5.83;72.38;102450.94;5061700;27;45466;-73
2022/01/15 11:06:03;;;;;;;;;116.50;97.75;;;;;5.89;72.14;102448.66;5064846;27;45809;-73
2022/01/15 11:08:29;;;;;;;;;131.25;106.00;;;;;6.01;71.67;102441.50;5071738;27;45660;-76
2022/01/15 11:11:02;;;;;;;;;130.25;106.00;;;;;6.13;71.52;102444.84;5065330;27;45552;-73
2022/01/15 11:13:48;;;;;;;;;117.25;97.75;;;;;6.23;71.43;102448.81;5064753;28;46087;-73
2022/01/15 11:16:15;;;;;;;;;114.25;90.00;;;;;6.28;71.50;102429.94;5074009;27;45497;-74
2022/01/15 11:18:42;;;;;;;;;106.50;89.50;;;;;6.38;71.27;102428.69;5069086;27;45611;-74
2022/01/15 11:21:13;;;;;;;;;117.50;98.75;;;;;6.48;71.32;102433.59;5067384;27;45466;-75
2022/01/15 11:23:39;;;;;;;;;108.25;89.50;;;;;6.56;71.19;102429.66;5054081;28;47454;-74
2022/01/15 11:26:07;;;;;;;;;118.25;93.25;;;;;6.63;71.07;102435.25;5070425;28;45443;-75
2022/01/15 11:28:35;;;;;;;;;121.50;103.50;;;;;6.70;71.04;102425.13;5067237;28;45312;-74
2022/01/15 11:31:09;;;;;;;;;133.25;103.75;;;;;6.73;70.95;102411.28;5070274;28;45445;-74